sensor_id;sensor_type;location;lat;lon;timestamp;temperature;humidity
10964;DHT22;5534;48.784;9.190;2024-01-27T00:01:48;8.90;99.90
10964;DHT22;5534;48.784;9.190;2024-01-27T00:04:13;8.70;99.90
10964;DHT22;5534;48.784;9.190;2024-01-27T00:06:39;8.70;99.90
10964;DHT22;5534;48.784;9.190;2024-01-27T00:09:05;8.60;99.90
10964;DHT22;5534;48.784;9.190;2024-01-27T00:11:32;8.50;99.90
10964;DHT22;5534;48.784;9.190;2024-01-27T00:13:58;8.40;99.90
10964;DHT22;5534;48.784;9.190;2024-01-27T00:16:24;8.40;99.90
10964;DHT22;5534;48.784;9.190;2024-01-27T00:18:50;8.30;99.90
10964;DHT22;5534;48.784;9.190;2024-01-27T00:21:15;8.20;99.90
10964;DHT22;5534;48.784;9.190;2024-01-27T00:23:41;8.30;99.90
10964;DHT22;5534;48.784;9.190;2024-01-27T00:26:07;8.20;99.90
10964;DHT22;5534;48.784;9.190;2024-01-27T00:28:32;8.20;99.90
10964;DHT22;5534;48.784;9.190;2024-01-27T00:30:58;8.20;99.90
10964;DHT22;5534;48.784;9.190;2024-01-27T00:33:23;8.30;99.90
10964;DHT22;5534;48.784;9.190;2024-01-27T00:35:49;8.20;99.90
10964;DHT22;5534;48.784;9.190;2024-01-27T00:38:15;8.10;99.90
10964;DHT22;5534;48.784;9.190;2024-01-27T00:40:40;8.10;99.90
10964;DHT22;5534;48.784;9.190;2024-01-27T00:43:06;8.00;99.90
10964;DHT22;5534;48.784;9.190;2024-01-27T00:45:32;8.00;99.90
10964;DHT22;5534;48.784;9.190;2024-01-27T00:47:57;8.00;99.90
10964;DHT22;5534;48.784;9.190;2024-01-27T00:50:23;8.00;99.90
10964;DHT22;5534;48.784;9.190;2024-01-27T00:52:49;8.00;99.90
10964;DHT22;5534;48.784;9.190;2024-01-27T00:55:14;8.10;99.90
10964;DHT22;5534;48.784;9.190;2024-01-27T00:57:40;8.00;99.90
10964;DHT22;5534;48.784;9.190;2024-01-27T01:00:07;8.00;99.90
10964;DHT22;5534;48.784;9.190;2024-01-27T01:02:34;8.00;99.90
10964;DHT22;5534;48.784;9.190;2024-01-27T01:05:00;8.00;99.90
10964;DHT22;5534;48.784;9.190;2024-01-27T01:07:26;8.00;99.90
10964;DHT22;5534;48.784;9.190;2024-01-27T01:09:52;7.90;99.90
10964;DHT22;5534;48.784;9.190;2024-01-27T01:12:17;7.90;99.90
10964;DHT22;5534;48.784;9.190;2024-01-27T01:14:43;7.80;99.90
10964;DHT22;5534;48.784;9.190;2024-01-27T01:17:09;7.80;99.90
10964;DHT22;5534;48.784;9.190;2024-01-27T01:19:36;7.90;99.90
10964;DHT22;5534;48.784;9.190;2024-01-27T01:22:03;7.80;99.90
10964;DHT22;5534;48.784;9.190;2024-01-27T01:24:29;7.80;99.90
10964;DHT22;5534;48.784;9.190;2024-01-27T01:26:55;7.80;99.90
10964;DHT22;5534;48.784;9.190;2024-01-27T01:29:21;7.80;99.90
10964;DHT22;5534;48.784;9.190;2024-01-27T01:31:47;7.80;99.90
10964;DHT22;5534;48.784;9.190;2024-01-27T01:34:13;7.80;99.90
10964;DHT22;5534;48.784;9.190;2024-01-27T01:36:39;7.70;99.90
10964;DHT22;5534;48.784;9.190;2024-01-27T01:39:04;7.70;99.90
10964;DHT22;5534;48.784;9.190;2024-01-27T01:41:30;7.70;99.90
10964;DHT22;5534;48.784;9.190;2024-01-27T01:43:55;7.70;99.90
10964;DHT22;5534;48.784;9.190;2024-01-27T01:46:22;7.70;99.90
10964;DHT22;5534;48.784;9.190;2024-01-27T01:48:49;7.60;99.90
10964;DHT22;5534;48.784;9.190;2024-01-27T01:51:16;7.60;99.90
10964;DHT22;5534;48.784;9.190;2024-01-27T01:53:43;7.40;99.90
10964;DHT22;5534;48.784;9.190;2024-01-27T01:56:12;7.50;99.90
10964;DHT22;5534;48.784;9.190;2024-01-27T01:58:39;7.40;99.90
10964;DHT22;5534;48.784;9.190;2024-01-27T02:01:04;7.30;99.90
10964;DHT22;5534;48.784;9.190;2024-01-27T02:03:30;7.30;99.90
10964;DHT22;5534;48.784;9.190;2024-01-27T02:05:56;7.30;99.90
10964;DHT22;5534;48.784;9.190;2024-01-27T02:08:22;7.20;99.90
10964;DHT22;5534;48.784;9.190;2024-01-27T02:10:47;7.20;99.90
10964;DHT22;5534;48.784;9.190;2024-01-27T02:13:20;7.20;99.90
10964;DHT22;5534;48.784;9.190;2024-01-27T02:15:46;7.20;99.90
10964;DHT22;5534;48.784;9.190;2024-01-27T02:18:12;7.20;99.90
10964;DHT22;5534;48.784;9.190;2024-01-27T02:20:38;7.20;99.90
10964;DHT22;5534;48.784;9.190;2024-01-27T02:23:04;7.10;99.90
10964;DHT22;5534;48.784;9.190;2024-01-27T02:25:33;7.10;99.90
10964;DHT22;5534;48.784;9.190;2024-01-27T02:27:59;7.10;99.90
10964;DHT22;5534;48.784;9.190;2024-01-27T02:30:25;7.10;99.90
10964;DHT22;5534;48.784;9.190;2024-01-27T02:32:51;7.10;99.90
10964;DHT22;5534;48.784;9.190;2024-01-27T02:35:17;7.10;99.90
10964;DHT22;5534;48.784;9.190;2024-01-27T02:37:43;7.20;99.90
10964;DHT22;5534;48.784;9.190;2024-01-27T02:40:09;7.20;99.90
10964;DHT22;5534;48.784;9.190;2024-01-27T02:42:37;7.10;99.90
10964;DHT22;5534;48.784;9.190;2024-01-27T02:45:03;7.10;99.90
10964;DHT22;5534;48.784;9.190;2024-01-27T02:47:29;7.10;99.90
10964;DHT22;5534;48.784;9.190;2024-01-27T02:49:55;7.10;99.90
10964;DHT22;5534;48.784;9.190;2024-01-27T02:52:21;7.00;99.90
10964;DHT22;5534;48.784;9.190;2024-01-27T02:54:47;7.00;99.90
10964;DHT22;5534;48.784;9.190;2024-01-27T02:57:12;7.00;99.90
10964;DHT22;5534;48.784;9.190;2024-01-27T02:59:39;7.00;99.90
10964;DHT22;5534;48.784;9.190;2024-01-27T03:02:05;6.90;99.90
10964;DHT22;5534;48.784;9.190;2024-01-27T03:04:31;7.00;99.90
10964;DHT22;5534;48.784;9.190;2024-01-27T03:06:56;7.10;99.90
10964;DHT22;5534;48.784;9.190;2024-01-27T03:09:22;7.10;99.90
10964;DHT22;5534;48.784;9.190;2024-01-27T03:11:48;7.10;99.90
10964;DHT22;5534;48.784;9.190;2024-01-27T03:14:13;7.10;99.90
10964;DHT22;5534;48.784;9.190;2024-01-27T03:16:39;7.10;99.90
10964;DHT22;5534;48.784;9.190;2024-01-27T03:19:05;7.10;99.90
10964;DHT22;5534;48.784;9.190;2024-01-27T03:21:32;7.10;99.90
10964;DHT22;5534;48.784;9.190;2024-01-27T03:23:57;7.00;99.90
10964;DHT22;5534;48.784;9.190;2024-01-27T03:26:23;7.00;99.90
10964;DHT22;5534;48.784;9.190;2024-01-27T03:28:49;6.90;99.90
10964;DHT22;5534;48.784;9.190;2024-01-27T03:31:14;6.90;99.90
10964;DHT22;5534;48.784;9.190;2024-01-27T03:33:40;6.90;99.90
10964;DHT22;5534;48.784;9.190;2024-01-27T03:36:13;6.90;99.90
10964;DHT22;5534;48.784;9.190;2024-01-27T03:38:40;6.80;99.90
10964;DHT22;5534;48.784;9.190;2024-01-27T03:41:06;6.80;99.90
10964;DHT22;5534;48.784;9.190;2024-01-27T03:43:33;6.80;99.90
10964;DHT22;5534;48.784;9.190;2024-01-27T03:45:58;6.80;99.90
10964;DHT22;5534;48.784;9.190;2024-01-27T03:48:24;6.80;99.90
10964;DHT22;5534;48.784;9.190;2024-01-27T03:50:50;6.70;99.90
10964;DHT22;5534;48.784;9.190;2024-01-27T03:53:16;6.70;99.90
10964;DHT22;5534;48.784;9.190;2024-01-27T03:55:41;6.70;99.90
10964;DHT22;5534;48.784;9.190;2024-01-27T03:58:07;6.70;99.90
10964;DHT22;5534;48.784;9.190;2024-01-27T04:00:33;6.60;99.90
10964;DHT22;5534;48.784;9.190;2024-01-27T04:03:02;6.60;99.90
10964;DHT22;5534;48.784;9.190;2024-01-27T04:05:30;6.60;99.90
10964;DHT22;5534;48.784;9.190;2024-01-27T04:07:56;6.70;99.90
10964;DHT22;5534;48.784;9.190;2024-01-27T04:10:22;6.60;99.90
10964;DHT22;5534;48.784;9.190;2024-01-27T04:12:49;6.60;99.90
10964;DHT22;5534;48.784;9.190;2024-01-27T04:15:15;6.50;99.90
10964;DHT22;5534;48.784;9.190;2024-01-27T04:17:41;6.50;99.90
10964;DHT22;5534;48.784;9.190;2024-01-27T04:20:08;6.50;99.90
10964;DHT22;5534;48.784;9.190;2024-01-27T04:22:34;6.50;99.90
10964;DHT22;5534;48.784;9.190;2024-01-27T04:25:00;6.40;99.90
10964;DHT22;5534;48.784;9.190;2024-01-27T04:27:30;6.50;99.90
10964;DHT22;5534;48.784;9.190;2024-01-27T04:29:55;6.50;99.90
10964;DHT22;5534;48.784;9.190;2024-01-27T04:32:24;6.40;99.90
10964;DHT22;5534;48.784;9.190;2024-01-27T04:34:50;6.50;99.90
10964;DHT22;5534;48.784;9.190;2024-01-27T04:37:16;6.50;99.90
10964;DHT22;5534;48.784;9.190;2024-01-27T04:39:42;6.50;99.90
10964;DHT22;5534;48.784;9.190;2024-01-27T04:42:07;6.40;99.90
10964;DHT22;5534;48.784;9.190;2024-01-27T04:44:33;6.40;99.90
10964;DHT22;5534;48.784;9.190;2024-01-27T04:46:59;6.40;99.90
10964;DHT22;5534;48.784;9.190;2024-01-27T04:49:26;6.40;99.90
10964;DHT22;5534;48.784;9.190;2024-01-27T04:51:52;6.40;99.90
10964;DHT22;5534;48.784;9.190;2024-01-27T04:54:17;6.50;99.90
10964;DHT22;5534;48.784;9.190;2024-01-27T04:56:43;6.40;99.90
10964;DHT22;5534;48.784;9.190;2024-01-27T04:59:09;6.40;99.90
10964;DHT22;5534;48.784;9.190;2024-01-27T05:01:34;6.30;99.90
10964;DHT22;5534;48.784;9.190;2024-01-27T05:04:00;6.30;99.90
10964;DHT22;5534;48.784;9.190;2024-01-27T05:06:26;6.30;99.90
10964;DHT22;5534;48.784;9.190;2024-01-27T05:08:51;6.30;99.90
10964;DHT22;5534;48.784;9.190;2024-01-27T05:11:27;6.30;99.90
10964;DHT22;5534;48.784;9.190;2024-01-27T05:13:53;6.20;99.90
10964;DHT22;5534;48.784;9.190;2024-01-27T05:16:18;6.30;99.90
10964;DHT22;5534;48.784;9.190;2024-01-27T05:18:44;6.20;99.90
10964;DHT22;5534;48.784;9.190;2024-01-27T05:21:09;6.20;99.90
10964;DHT22;5534;48.784;9.190;2024-01-27T05:23:35;6.30;99.90
10964;DHT22;5534;48.784;9.190;2024-01-27T05:26:01;6.20;99.90
10964;DHT22;5534;48.784;9.190;2024-01-27T05:28:26;6.30;99.90
10964;DHT22;5534;48.784;9.190;2024-01-27T05:30:52;6.30;99.90
10964;DHT22;5534;48.784;9.190;2024-01-27T05:33:17;6.10;99.90
10964;DHT22;5534;48.784;9.190;2024-01-27T05:35:43;6.20;99.90
10964;DHT22;5534;48.784;9.190;2024-01-27T05:38:09;6.20;99.90
10964;DHT22;5534;48.784;9.190;2024-01-27T05:40:34;6.20;99.90
10964;DHT22;5534;48.784;9.190;2024-01-27T05:43:00;6.20;99.90
10964;DHT22;5534;48.784;9.190;2024-01-27T05:45:26;6.20;99.90
10964;DHT22;5534;48.784;9.190;2024-01-27T05:47:52;6.20;99.90
10964;DHT22;5534;48.784;9.190;2024-01-27T05:50:17;6.20;99.90
10964;DHT22;5534;48.784;9.190;2024-01-27T05:52:43;6.30;99.90
10964;DHT22;5534;48.784;9.190;2024-01-27T05:55:09;6.20;99.90
10964;DHT22;5534;48.784;9.190;2024-01-27T05:57:37;6.00;99.90
10964;DHT22;5534;48.784;9.190;2024-01-27T06:00:02;6.10;99.90
10964;DHT22;5534;48.784;9.190;2024-01-27T06:02:28;6.20;99.90
10964;DHT22;5534;48.784;9.190;2024-01-27T06:04:54;6.20;99.90
10964;DHT22;5534;48.784;9.190;2024-01-27T06:07:19;6.20;99.90
10964;DHT22;5534;48.784;9.190;2024-01-27T06:09:45;6.10;99.90
10964;DHT22;5534;48.784;9.190;2024-01-27T06:12:11;6.00;99.90
10964;DHT22;5534;48.784;9.190;2024-01-27T06:14:36;6.00;99.90
10964;DHT22;5534;48.784;9.190;2024-01-27T06:17:04;5.90;99.90
10964;DHT22;5534;48.784;9.190;2024-01-27T06:19:30;5.90;99.90
10964;DHT22;5534;48.784;9.190;2024-01-27T06:21:56;5.90;99.90
10964;DHT22;5534;48.784;9.190;2024-01-27T06:24:22;5.90;99.90
10964;DHT22;5534;48.784;9.190;2024-01-27T06:26:48;5.90;99.90
10964;DHT22;5534;48.784;9.190;2024-01-27T06:29:13;5.90;99.90
10964;DHT22;5534;48.784;9.190;2024-01-27T06:31:39;5.90;99.90
10964;DHT22;5534;48.784;9.190;2024-01-27T06:34:05;5.90;99.90
10964;DHT22;5534;48.784;9.190;2024-01-27T06:36:31;5.90;99.90
10964;DHT22;5534;48.784;9.190;2024-01-27T06:38:57;5.80;99.90
10964;DHT22;5534;48.784;9.190;2024-01-27T06:41:23;5.80;99.90
10964;DHT22;5534;48.784;9.190;2024-01-27T06:43:49;5.80;99.90
10964;DHT22;5534;48.784;9.190;2024-01-27T06:46:14;5.80;99.90
10964;DHT22;5534;48.784;9.190;2024-01-27T06:48:40;5.80;99.90
10964;DHT22;5534;48.784;9.190;2024-01-27T06:51:06;5.80;99.90
10964;DHT22;5534;48.784;9.190;2024-01-27T06:53:31;5.80;99.90
10964;DHT22;5534;48.784;9.190;2024-01-27T06:55:57;5.80;99.90
10964;DHT22;5534;48.784;9.190;2024-01-27T06:58:22;5.80;99.90
10964;DHT22;5534;48.784;9.190;2024-01-27T07:00:48;5.80;99.90
10964;DHT22;5534;48.784;9.190;2024-01-27T07:03:14;5.80;99.90
10964;DHT22;5534;48.784;9.190;2024-01-27T07:05:40;5.80;99.90
10964;DHT22;5534;48.784;9.190;2024-01-27T07:08:07;5.80;99.90
10964;DHT22;5534;48.784;9.190;2024-01-27T07:10:33;5.70;99.90
10964;DHT22;5534;48.784;9.190;2024-01-27T07:12:58;5.70;99.90
10964;DHT22;5534;48.784;9.190;2024-01-27T07:15:24;5.70;99.90
10964;DHT22;5534;48.784;9.190;2024-01-27T07:17:50;5.70;99.90
10964;DHT22;5534;48.784;9.190;2024-01-27T07:20:15;5.70;99.90
10964;DHT22;5534;48.784;9.190;2024-01-27T07:22:41;5.60;99.90
10964;DHT22;5534;48.784;9.190;2024-01-27T07:25:07;5.60;99.90
10964;DHT22;5534;48.784;9.190;2024-01-27T07:27:35;5.60;99.90
10964;DHT22;5534;48.784;9.190;2024-01-27T07:30:02;5.60;99.90
10964;DHT22;5534;48.784;9.190;2024-01-27T07:32:27;5.60;99.90
10964;DHT22;5534;48.784;9.190;2024-01-27T07:34:53;5.40;99.90
10964;DHT22;5534;48.784;9.190;2024-01-27T07:37:19;5.50;99.90
10964;DHT22;5534;48.784;9.190;2024-01-27T07:39:46;5.50;99.90
10964;DHT22;5534;48.784;9.190;2024-01-27T07:42:14;5.50;99.90
10964;DHT22;5534;48.784;9.190;2024-01-27T07:44:41;5.50;99.90
10964;DHT22;5534;48.784;9.190;2024-01-27T07:47:07;5.20;99.90
10964;DHT22;5534;48.784;9.190;2024-01-27T07:49:34;5.30;99.90
10964;DHT22;5534;48.784;9.190;2024-01-27T07:52:00;5.60;99.90
10964;DHT22;5534;48.784;9.190;2024-01-27T07:54:25;5.60;99.90
10964;DHT22;5534;48.784;9.190;2024-01-27T07:56:51;5.70;99.90
10964;DHT22;5534;48.784;9.190;2024-01-27T07:59:17;5.80;99.90
10964;DHT22;5534;48.784;9.190;2024-01-27T08:01:43;5.80;99.90
10964;DHT22;5534;48.784;9.190;2024-01-27T08:04:09;5.80;99.90
10964;DHT22;5534;48.784;9.190;2024-01-27T08:06:45;6.00;99.90
10964;DHT22;5534;48.784;9.190;2024-01-27T08:09:11;5.80;99.90
10964;DHT22;5534;48.784;9.190;2024-01-27T08:11:36;5.80;99.90
10964;DHT22;5534;48.784;9.190;2024-01-27T08:14:03;5.80;99.90
10964;DHT22;5534;48.784;9.190;2024-01-27T08:16:28;5.60;99.90
10964;DHT22;5534;48.784;9.190;2024-01-27T08:18:54;5.50;99.90
10964;DHT22;5534;48.784;9.190;2024-01-27T08:21:19;5.60;99.90
10964;DHT22;5534;48.784;9.190;2024-01-27T08:23:45;5.70;99.90
10964;DHT22;5534;48.784;9.190;2024-01-27T08:26:10;5.70;99.90
10964;DHT22;5534;48.784;9.190;2024-01-27T08:28:36;5.50;99.90
10964;DHT22;5534;48.784;9.190;2024-01-27T08:31:05;5.70;99.90
10964;DHT22;5534;48.784;9.190;2024-01-27T08:33:30;5.80;99.90
10964;DHT22;5534;48.784;9.190;2024-01-27T08:35:56;5.90;99.90
10964;DHT22;5534;48.784;9.190;2024-01-27T08:38:22;5.90;99.90
10964;DHT22;5534;48.784;9.190;2024-01-27T08:40:47;5.90;99.90
10964;DHT22;5534;48.784;9.190;2024-01-27T08:43:13;5.60;99.90
10964;DHT22;5534;48.784;9.190;2024-01-27T08:45:40;5.60;99.90
10964;DHT22;5534;48.784;9.190;2024-01-27T08:48:06;5.80;99.90
10964;DHT22;5534;48.784;9.190;2024-01-27T08:50:32;5.90;99.90
10964;DHT22;5534;48.784;9.190;2024-01-27T08:52:58;6.00;99.90
10964;DHT22;5534;48.784;9.190;2024-01-27T08:55:23;6.00;99.90
10964;DHT22;5534;48.784;9.190;2024-01-27T08:57:50;6.10;99.90
10964;DHT22;5534;48.784;9.190;2024-01-27T09:00:16;6.10;99.90
10964;DHT22;5534;48.784;9.190;2024-01-27T09:02:45;6.10;99.90
10964;DHT22;5534;48.784;9.190;2024-01-27T09:05:11;6.00;99.90
10964;DHT22;5534;48.784;9.190;2024-01-27T09:07:37;6.10;99.90
10964;DHT22;5534;48.784;9.190;2024-01-27T09:10:03;6.10;99.90
10964;DHT22;5534;48.784;9.190;2024-01-27T09:12:29;5.90;99.90
10964;DHT22;5534;48.784;9.190;2024-01-27T09:14:54;5.40;99.90
10964;DHT22;5534;48.784;9.190;2024-01-27T09:17:20;5.20;99.90
10964;DHT22;5534;48.784;9.190;2024-01-27T09:19:46;5.30;99.90
10964;DHT22;5534;48.784;9.190;2024-01-27T09:22:12;5.40;99.90
10964;DHT22;5534;48.784;9.190;2024-01-27T09:24:38;5.60;99.90
10964;DHT22;5534;48.784;9.190;2024-01-27T09:27:04;5.90;99.90
10964;DHT22;5534;48.784;9.190;2024-01-27T09:29:30;6.20;99.90
10964;DHT22;5534;48.784;9.190;2024-01-27T09:31:56;6.30;99.90
10964;DHT22;5534;48.784;9.190;2024-01-27T09:34:22;6.10;99.90
10964;DHT22;5534;48.784;9.190;2024-01-27T09:36:47;6.00;99.90
10964;DHT22;5534;48.784;9.190;2024-01-27T09:39:13;6.00;99.90
10964;DHT22;5534;48.784;9.190;2024-01-27T09:41:39;6.10;99.90
10964;DHT22;5534;48.784;9.190;2024-01-27T09:44:05;5.80;99.90
10964;DHT22;5534;48.784;9.190;2024-01-27T09:46:31;5.90;99.90
10964;DHT22;5534;48.784;9.190;2024-01-27T09:48:57;5.80;99.90
10964;DHT22;5534;48.784;9.190;2024-01-27T09:51:24;6.20;99.90
10964;DHT22;5534;48.784;9.190;2024-01-27T09:53:51;6.40;99.90
10964;DHT22;5534;48.784;9.190;2024-01-27T09:56:17;6.60;99.90
10964;DHT22;5534;48.784;9.190;2024-01-27T09:58:47;6.60;99.90
10964;DHT22;5534;48.784;9.190;2024-01-27T10:01:16;6.80;99.90
10964;DHT22;5534;48.784;9.190;2024-01-27T10:03:43;6.40;99.90
10964;DHT22;5534;48.784;9.190;2024-01-27T10:06:09;6.30;99.90
10964;DHT22;5534;48.784;9.190;2024-01-27T10:08:36;6.10;99.90
10964;DHT22;5534;48.784;9.190;2024-01-27T10:11:07;6.50;99.90
10964;DHT22;5534;48.784;9.190;2024-01-27T10:13:34;6.80;99.90
10964;DHT22;5534;48.784;9.190;2024-01-27T10:16:00;6.90;99.90
10964;DHT22;5534;48.784;9.190;2024-01-27T10:18:26;6.90;99.90
10964;DHT22;5534;48.784;9.190;2024-01-27T10:20:52;7.20;99.90
10964;DHT22;5534;48.784;9.190;2024-01-27T10:23:18;7.40;99.90
10964;DHT22;5534;48.784;9.190;2024-01-27T10:25:43;7.10;99.90
10964;DHT22;5534;48.784;9.190;2024-01-27T10:28:09;7.30;99.90
10964;DHT22;5534;48.784;9.190;2024-01-27T10:30:36;7.40;99.90
10964;DHT22;5534;48.784;9.190;2024-01-27T10:33:01;7.50;99.90
10964;DHT22;5534;48.784;9.190;2024-01-27T10:35:28;7.70;99.90
10964;DHT22;5534;48.784;9.190;2024-01-27T10:37:55;7.70;99.90
10964;DHT22;5534;48.784;9.190;2024-01-27T10:40:21;7.70;99.90
10964;DHT22;5534;48.784;9.190;2024-01-27T10:43:00;7.70;99.90
10964;DHT22;5534;48.784;9.190;2024-01-27T10:45:33;7.70;99.90
10964;DHT22;5534;48.784;9.190;2024-01-27T10:48:00;7.80;99.90
10964;DHT22;5534;48.784;9.190;2024-01-27T10:50:27;8.00;99.90
10964;DHT22;5534;48.784;9.190;2024-01-27T10:52:54;8.10;99.90
10964;DHT22;5534;48.784;9.190;2024-01-27T10:55:22;8.00;99.90
10964;DHT22;5534;48.784;9.190;2024-01-27T10:57:50;8.00;99.90
10964;DHT22;5534;48.784;9.190;2024-01-27T11:00:16;7.70;99.90
10964;DHT22;5534;48.784;9.190;2024-01-27T11:02:42;8.10;99.90
10964;DHT22;5534;48.784;9.190;2024-01-27T11:05:10;8.00;99.90
10964;DHT22;5534;48.784;9.190;2024-01-27T11:07:38;8.20;99.90
10964;DHT22;5534;48.784;9.190;2024-01-27T11:10:05;8.20;99.90
10964;DHT22;5534;48.784;9.190;2024-01-27T11:12:31;8.40;99.90
10964;DHT22;5534;48.784;9.190;2024-01-27T11:14:57;8.30;99.90
10964;DHT22;5534;48.784;9.190;2024-01-27T11:17:25;8.40;99.90
10964;DHT22;5534;48.784;9.190;2024-01-27T11:19:52;8.60;99.90
10964;DHT22;5534;48.784;9.190;2024-01-27T11:22:25;8.60;99.90
10964;DHT22;5534;48.784;9.190;2024-01-27T11:27:36;8.70;99.90
10964;DHT22;5534;48.784;9.190;2024-01-27T11:30:04;8.60;99.90
10964;DHT22;5534;48.784;9.190;2024-01-27T11:32:30;8.90;99.90
10964;DHT22;5534;48.784;9.190;2024-01-27T11:34:56;9.10;99.90
10964;DHT22;5534;48.784;9.190;2024-01-27T11:37:23;9.00;99.90
10964;DHT22;5534;48.784;9.190;2024-01-27T11:39:52;9.10;99.90
10964;DHT22;5534;48.784;9.190;2024-01-27T11:42:28;9.10;99.90
10964;DHT22;5534;48.784;9.190;2024-01-27T11:44:54;8.90;99.90
10964;DHT22;5534;48.784;9.190;2024-01-27T11:47:20;9.00;99.90
10964;DHT22;5534;48.784;9.190;2024-01-27T11:49:53;9.20;99.90
10964;DHT22;5534;48.784;9.190;2024-01-27T11:52:19;9.30;99.90
10964;DHT22;5534;48.784;9.190;2024-01-27T11:54:45;9.30;99.90
10964;DHT22;5534;48.784;9.190;2024-01-27T11:57:11;8.90;99.90
10964;DHT22;5534;48.784;9.190;2024-01-27T11:59:36;8.80;99.90
10964;DHT22;5534;48.784;9.190;2024-01-27T12:02:02;8.80;99.90
10964;DHT22;5534;48.784;9.190;2024-01-27T12:04:29;9.20;99.90
10964;DHT22;5534;48.784;9.190;2024-01-27T12:06:54;9.10;99.90
10964;DHT22;5534;48.784;9.190;2024-01-27T12:09:20;8.80;99.90
10964;DHT22;5534;48.784;9.190;2024-01-27T12:11:47;8.80;99.90
10964;DHT22;5534;48.784;9.190;2024-01-27T12:14:13;8.90;99.90
10964;DHT22;5534;48.784;9.190;2024-01-27T12:16:39;8.80;99.90
10964;DHT22;5534;48.784;9.190;2024-01-27T12:19:05;9.10;99.90
10964;DHT22;5534;48.784;9.190;2024-01-27T12:21:30;9.10;99.90
10964;DHT22;5534;48.784;9.190;2024-01-27T12:23:57;9.30;99.90
10964;DHT22;5534;48.784;9.190;2024-01-27T12:26:27;10.10;99.90
10964;DHT22;5534;48.784;9.190;2024-01-27T12:28:54;10.90;99.90
10964;DHT22;5534;48.784;9.190;2024-01-27T12:31:22;10.90;99.90
10964;DHT22;5534;48.784;9.190;2024-01-27T12:33:50;10.80;99.90
10964;DHT22;5534;48.784;9.190;2024-01-27T12:36:18;10.80;99.90
10964;DHT22;5534;48.784;9.190;2024-01-27T12:39:01;10.30;99.90
10964;DHT22;5534;48.784;9.190;2024-01-27T12:41:31;10.30;99.90
10964;DHT22;5534;48.784;9.190;2024-01-27T12:44:01;10.30;99.90
10964;DHT22;5534;48.784;9.190;2024-01-27T12:46:28;10.50;99.90
10964;DHT22;5534;48.784;9.190;2024-01-27T12:48:55;10.40;99.90
10964;DHT22;5534;48.784;9.190;2024-01-27T12:51:21;10.60;99.90
10964;DHT22;5534;48.784;9.190;2024-01-27T12:53:47;10.60;99.90
10964;DHT22;5534;48.784;9.190;2024-01-27T12:56:13;10.60;99.90
10964;DHT22;5534;48.784;9.190;2024-01-27T12:58:40;10.60;99.90
10964;DHT22;5534;48.784;9.190;2024-01-27T13:01:07;10.60;99.90
10964;DHT22;5534;48.784;9.190;2024-01-27T13:03:33;10.50;99.90
10964;DHT22;5534;48.784;9.190;2024-01-27T13:06:00;10.40;99.90
10964;DHT22;5534;48.784;9.190;2024-01-27T13:08:27;10.40;99.90
10964;DHT22;5534;48.784;9.190;2024-01-27T13:10:53;10.50;99.90
10964;DHT22;5534;48.784;9.190;2024-01-27T13:13:18;10.60;99.90
10964;DHT22;5534;48.784;9.190;2024-01-27T13:15:45;10.50;99.90
10964;DHT22;5534;48.784;9.190;2024-01-27T13:18:10;10.60;99.90
10964;DHT22;5534;48.784;9.190;2024-01-27T13:20:37;10.40;99.90
10964;DHT22;5534;48.784;9.190;2024-01-27T13:23:03;10.70;99.90
10964;DHT22;5534;48.784;9.190;2024-01-27T13:25:28;10.60;99.90
10964;DHT22;5534;48.784;9.190;2024-01-27T13:27:54;10.60;99.90
10964;DHT22;5534;48.784;9.190;2024-01-27T13:30:21;10.90;99.90
10964;DHT22;5534;48.784;9.190;2024-01-27T13:32:47;10.90;99.90
10964;DHT22;5534;48.784;9.190;2024-01-27T13:35:12;10.90;99.90
10964;DHT22;5534;48.784;9.190;2024-01-27T13:37:38;11.10;99.90
10964;DHT22;5534;48.784;9.190;2024-01-27T13:40:05;11.10;99.90
10964;DHT22;5534;48.784;9.190;2024-01-27T13:42:33;11.00;99.90
10964;DHT22;5534;48.784;9.190;2024-01-27T13:44:59;11.00;99.90
10964;DHT22;5534;48.784;9.190;2024-01-27T13:47:25;10.50;99.90
10964;DHT22;5534;48.784;9.190;2024-01-27T13:49:50;10.50;99.90
10964;DHT22;5534;48.784;9.190;2024-01-27T13:52:16;10.70;99.90
10964;DHT22;5534;48.784;9.190;2024-01-27T13:54:42;10.80;99.90
10964;DHT22;5534;48.784;9.190;2024-01-27T13:57:09;10.70;99.90
10964;DHT22;5534;48.784;9.190;2024-01-27T13:59:36;10.80;99.90
10964;DHT22;5534;48.784;9.190;2024-01-27T14:02:01;10.70;99.90
10964;DHT22;5534;48.784;9.190;2024-01-27T14:04:27;10.70;99.90
10964;DHT22;5534;48.784;9.190;2024-01-27T14:06:53;10.70;99.90
10964;DHT22;5534;48.784;9.190;2024-01-27T14:09:22;10.50;99.90
10964;DHT22;5534;48.784;9.190;2024-01-27T14:11:48;10.50;99.90
10964;DHT22;5534;48.784;9.190;2024-01-27T14:14:14;10.60;99.90
10964;DHT22;5534;48.784;9.190;2024-01-27T14:16:43;10.60;99.90
10964;DHT22;5534;48.784;9.190;2024-01-27T14:19:08;10.70;99.90
10964;DHT22;5534;48.784;9.190;2024-01-27T14:21:34;10.60;99.90
10964;DHT22;5534;48.784;9.190;2024-01-27T14:23:59;10.70;99.90
10964;DHT22;5534;48.784;9.190;2024-01-27T14:26:30;10.60;99.90
10964;DHT22;5534;48.784;9.190;2024-01-27T14:28:56;10.50;99.90
10964;DHT22;5534;48.784;9.190;2024-01-27T14:31:22;10.60;99.90
10964;DHT22;5534;48.784;9.190;2024-01-27T14:33:47;10.50;99.90
10964;DHT22;5534;48.784;9.190;2024-01-27T14:36:14;10.50;99.90
10964;DHT22;5534;48.784;9.190;2024-01-27T14:38:40;10.40;99.90
10964;DHT22;5534;48.784;9.190;2024-01-27T14:41:07;9.90;99.90
10964;DHT22;5534;48.784;9.190;2024-01-27T14:43:33;10.00;99.90
10964;DHT22;5534;48.784;9.190;2024-01-27T14:45:59;10.10;99.90
10964;DHT22;5534;48.784;9.190;2024-01-27T14:48:24;10.20;99.90
10964;DHT22;5534;48.784;9.190;2024-01-27T14:50:51;10.20;99.90
10964;DHT22;5534;48.784;9.190;2024-01-27T14:53:25;10.20;99.90
10964;DHT22;5534;48.784;9.190;2024-01-27T15:06:27;10.10;99.90
10964;DHT22;5534;48.784;9.190;2024-01-27T15:08:53;10.10;99.90
10964;DHT22;5534;48.784;9.190;2024-01-27T15:11:19;10.00;99.90
10964;DHT22;5534;48.784;9.190;2024-01-27T15:13:44;10.10;99.90
10964;DHT22;5534;48.784;9.190;2024-01-27T15:16:10;10.00;99.90
10964;DHT22;5534;48.784;9.190;2024-01-27T15:18:36;10.00;99.90
10964;DHT22;5534;48.784;9.190;2024-01-27T15:21:06;9.90;99.90
10964;DHT22;5534;48.784;9.190;2024-01-27T15:23:32;10.00;99.90
10964;DHT22;5534;48.784;9.190;2024-01-27T15:25:58;10.00;99.90
10964;DHT22;5534;48.784;9.190;2024-01-27T15:28:27;10.00;99.90
10964;DHT22;5534;48.784;9.190;2024-01-27T15:30:52;9.90;99.90
10964;DHT22;5534;48.784;9.190;2024-01-27T15:33:18;9.90;99.90
10964;DHT22;5534;48.784;9.190;2024-01-27T15:35:43;9.90;99.90
10964;DHT22;5534;48.784;9.190;2024-01-27T15:38:09;9.90;99.90
10964;DHT22;5534;48.784;9.190;2024-01-27T15:40:35;9.80;99.90
10964;DHT22;5534;48.784;9.190;2024-01-27T15:43:01;9.80;99.90
10964;DHT22;5534;48.784;9.190;2024-01-27T15:45:26;9.70;99.90
10964;DHT22;5534;48.784;9.190;2024-01-27T15:47:53;9.80;99.90
10964;DHT22;5534;48.784;9.190;2024-01-27T15:50:21;9.70;99.90
10964;DHT22;5534;48.784;9.190;2024-01-27T15:52:51;9.50;99.90
10964;DHT22;5534;48.784;9.190;2024-01-27T15:55:17;9.50;99.90
10964;DHT22;5534;48.784;9.190;2024-01-27T15:57:43;9.10;99.90
10964;DHT22;5534;48.784;9.190;2024-01-27T16:00:08;9.00;99.90
10964;DHT22;5534;48.784;9.190;2024-01-27T16:02:36;8.90;99.90
10964;DHT22;5534;48.784;9.190;2024-01-27T16:05:02;8.80;99.90
10964;DHT22;5534;48.784;9.190;2024-01-27T16:07:29;8.60;99.90